Terminal Aerodrome Forecast
Issued by NWS Sterling, VA

Home | Current Version | Previous Version | Text Only | Print | Product List | Glossary On
Versions: 1 2 3 4 5 6 7 8 9 10 11 12 13 14 15 16 17 18 19 20 21 22 23 24
527
FTUS41 KLWX 281447 AAA
TAFBWI
TAF AMD
KBWI 281447Z 2815/2918 00000KT P6SM BKN120
     FM281900 VRB03KT P6SM -TSRA BKN045CB
     FM282100 VRB03KT P6SM TSRA OVC060CB
     FM290300 11004KT 5SM SHRA VCTS OVC060CB
     FM290600 13005KT 3SM SHRA OVC045
     FM290900 18005KT P6SM SHRA BKN050
     FM291100 28005KT P6SM -SHRA OVC045
     FM291500 32010KT P6SM OVC040=

USA.gov is the U.S. government's official web portal to all federal, state and local government web resources and services.